createdAt,value
2024-05-09T00:00:48.685Z,13.60
2024-05-09T00:05:51.815Z,14.79
2024-05-09T00:10:54.834Z,13.24
2024-05-09T00:15:57.909Z,13.28
2024-05-09T00:21:01.129Z,13.33
2024-05-09T00:26:04.191Z,12.83
2024-05-09T00:31:07.083Z,13.81
2024-05-09T00:36:10.101Z,13.46
2024-05-09T00:41:15.152Z,13.47
2024-05-09T00:46:19.677Z,14.18
2024-05-09T00:51:22.871Z,14.47
2024-05-09T00:56:26.692Z,13.27
2024-05-09T01:01:30.517Z,13.25
2024-05-09T01:06:33.452Z,13.37
2024-05-09T01:11:41.019Z,13.45
2024-05-09T01:16:44.185Z,13.36
2024-05-09T01:21:47.122Z,14.46
2024-05-09T01:26:50.227Z,13.57
2024-05-09T01:31:53.296Z,13.16
2024-05-09T01:36:56.269Z,13.61
2024-05-09T01:41:59.155Z,14.29
2024-05-09T01:47:02.179Z,14.41
2024-05-09T01:52:05.455Z,13.29
2024-05-09T01:57:08.562Z,14.20
2024-05-09T02:02:12.835Z,13.63
2024-05-09T02:07:16.245Z,13.13
2024-05-09T02:12:19.289Z,12.84
2024-05-09T02:17:22.875Z,13.07
2024-05-09T02:22:26.202Z,13.20
2024-05-09T02:27:29.413Z,14.23
2024-05-09T02:32:32.702Z,13.78
2024-05-09T02:37:35.908Z,12.89
2024-05-09T02:42:39.015Z,12.99
2024-05-09T02:47:42.210Z,13.06
2024-05-09T02:52:45.497Z,13.13
2024-05-09T02:57:48.710Z,13.05
2024-05-09T03:02:51.965Z,13.03
2024-05-09T03:07:55.219Z,12.84
2024-05-09T03:12:58.154Z,13.21
2024-05-09T03:18:01.815Z,12.87
2024-05-09T03:23:08.079Z,12.92
2024-05-09T03:28:12.489Z,12.77
2024-05-09T03:33:20.194Z,12.57
2024-05-09T03:38:23.810Z,12.45
2024-05-09T03:43:26.767Z,12.37
2024-05-09T03:48:29.826Z,12.46
2024-05-09T03:53:32.952Z,12.50
2024-05-09T03:58:37.773Z,12.36
2024-05-09T04:03:41.039Z,12.50
2024-05-09T04:08:44.335Z,12.12
2024-05-09T04:13:47.559Z,12.12
2024-05-09T04:18:50.811Z,12.39
2024-05-09T04:23:54.139Z,12.62
2024-05-09T04:28:57.160Z,11.90
2024-05-09T04:34:00.282Z,12.20
2024-05-09T04:39:03.469Z,12.89
2024-05-09T04:44:06.653Z,13.49
2024-05-09T04:49:10.007Z,16.77
2024-05-09T04:54:25.728Z,18.56
2024-05-09T04:59:33.691Z,18.89
2024-05-09T05:04:36.907Z,20.39
2024-05-09T05:09:39.837Z,20.15
2024-05-09T05:14:42.724Z,21.40
2024-05-09T05:19:48.059Z,21.90
2024-05-09T05:24:51.031Z,19.19
2024-05-09T05:29:53.905Z,22.86
2024-05-09T05:34:57.028Z,18.57
2024-05-09T05:39:59.937Z,17.17
2024-05-09T05:45:05.118Z,20.10
2024-05-09T05:50:20.498Z,19.37
2024-05-09T05:55:30.373Z,17.50
2024-05-09T06:00:38.475Z,17.70
2024-05-09T06:05:44.155Z,18.39
2024-05-09T06:10:47.798Z,18.25
2024-05-09T06:15:51.061Z,18.30
2024-05-09T06:20:54.012Z,18.02
2024-05-09T06:25:57.174Z,19.10
2024-05-09T06:31:03.494Z,17.74
2024-05-09T06:36:07.310Z,16.40
2024-05-09T06:41:10.492Z,17.41
2024-05-09T06:46:13.447Z,18.09
2024-05-09T06:51:16.755Z,17.62
2024-05-09T06:56:19.777Z,18.85
2024-05-09T07:01:23.054Z,17.60
2024-05-09T07:06:26.296Z,18.53
2024-05-09T07:11:31.662Z,17.94
2024-05-09T07:16:34.894Z,18.01
2024-05-09T07:21:37.778Z,18.64
2024-05-09T07:26:40.833Z,19.01
2024-05-09T07:31:44.050Z,19.91
2024-05-09T07:36:47.364Z,18.31
2024-05-09T07:41:50.514Z,17.55
2024-05-09T07:48:13.724Z,17.67
2024-05-09T07:53:29.938Z,18.88
2024-05-09T07:57:39.763Z,18.15
2024-05-09T08:02:42.960Z,19.19
2024-05-09T08:07:47.322Z,18.60
2024-05-09T08:12:50.248Z,18.40
2024-05-09T08:17:53.251Z,19.03
2024-05-09T08:22:56.447Z,19.76
2024-05-09T08:27:59.644Z,21.06
2024-05-09T08:33:06.097Z,19.64
2024-05-09T08:38:10.843Z,19.74
2024-05-09T08:43:15.569Z,20.65
2024-05-09T08:48:20.859Z,20.92
2024-05-09T08:53:23.952Z,20.63
2024-05-09T08:58:28.087Z,19.15
2024-05-09T09:03:34.547Z,19.56
2024-05-09T09:08:40.392Z,19.26
2024-05-09T09:13:43.382Z,20.33
2024-05-09T09:18:47.083Z,19.17
2024-05-09T09:23:50.143Z,20.19
2024-05-09T09:28:53.173Z,19.64
2024-05-09T09:33:56.317Z,19.62
2024-05-09T09:38:59.699Z,19.83
2024-05-09T09:44:04.986Z,19.92
2024-05-09T09:49:08.821Z,20.04
2024-05-09T09:54:13.252Z,20.05
2024-05-09T09:59:17.471Z,20.67
2024-05-09T10:04:20.836Z,19.70
2024-05-09T10:09:24.526Z,20.25
2024-05-09T10:14:30.943Z,20.26
2024-05-09T10:19:35.317Z,20.63
2024-05-09T10:25:08.442Z,21.16
2024-05-09T10:30:14.819Z,21.11
2024-05-09T10:35:26.685Z,20.95
2024-05-09T10:40:31.735Z,21.26
2024-05-09T10:45:36.564Z,21.14
2024-05-09T10:50:43.960Z,20.83
2024-05-09T10:55:58.055Z,21.28
2024-05-09T11:01:05.428Z,21.47
2024-05-09T11:06:11.591Z,21.24
2024-05-09T11:11:15.104Z,21.25
2024-05-09T11:16:21.140Z,21.25
2024-05-09T11:21:25.004Z,21.16
2024-05-09T11:26:29.608Z,20.74
2024-05-09T11:31:32.949Z,21.04
2024-05-09T11:36:36.275Z,21.46
2024-05-09T11:41:39.758Z,21.64
2024-05-09T11:46:44.611Z,21.04
2024-05-09T11:51:47.678Z,21.93
2024-05-09T11:56:51.762Z,21.86
2024-05-09T12:01:54.824Z,22.39
2024-05-09T12:06:57.889Z,22.97
2024-05-09T12:12:00.865Z,22.48
2024-05-09T12:17:05.844Z,21.97
2024-05-09T12:22:08.912Z,21.59
2024-05-09T12:27:11.939Z,23.40
2024-05-09T12:32:15.059Z,21.53
2024-05-09T12:37:19.188Z,22.10
2024-05-09T12:42:27.346Z,22.71
2024-05-09T12:47:31.629Z,22.99
2024-05-09T12:52:34.651Z,23.12
2024-05-09T12:57:37.752Z,24.19
2024-05-09T13:02:40.852Z,23.64
2024-05-09T13:07:44.013Z,24.62
2024-05-09T13:12:46.935Z,23.22
2024-05-09T13:17:49.942Z,23.00
2024-05-09T13:22:53.168Z,22.50
2024-05-09T13:27:57.386Z,23.23
2024-05-09T13:33:00.522Z,23.94
2024-05-09T13:38:04.884Z,24.39
2024-05-09T13:43:08.235Z,23.82
2024-05-09T13:48:11.482Z,25.25
2024-05-09T13:53:14.542Z,24.86
2024-05-09T13:58:18.014Z,24.30
2024-05-09T14:03:21.531Z,23.70
2024-05-09T14:08:24.700Z,23.15
2024-05-09T14:13:27.836Z,23.04
2024-05-09T14:18:31.134Z,23.07
2024-05-09T14:23:34.198Z,24.13
2024-05-09T14:28:37.168Z,24.30
2024-05-09T14:33:40.189Z,24.05
2024-05-09T14:38:43.485Z,23.56
2024-05-09T14:43:46.411Z,23.00
2024-05-09T14:48:50.028Z,22.69
2024-05-09T14:53:53.524Z,23.54
2024-05-09T14:58:57.256Z,24.35
2024-05-09T15:04:00.301Z,24.49
2024-05-09T15:09:06.539Z,24.37
2024-05-09T15:14:09.467Z,24.78
2024-05-09T15:19:12.885Z,24.29
2024-05-09T15:24:16.193Z,24.56
2024-05-09T15:29:19.248Z,23.59
2024-05-09T15:34:22.454Z,23.63
2024-05-09T15:39:25.739Z,23.20
2024-05-09T15:44:29.032Z,23.53
2024-05-09T15:49:32.082Z,23.44
2024-05-09T15:54:35.198Z,24.54
2024-05-09T15:59:38.689Z,24.78
2024-05-09T16:04:41.634Z,24.38
2024-05-09T16:09:44.836Z,23.15
2024-05-09T16:14:47.724Z,24.03
2024-05-09T16:19:50.656Z,23.54
2024-05-09T16:24:53.802Z,24.83
2024-05-09T16:30:03.966Z,24.72
2024-05-09T16:35:08.422Z,24.15
2024-05-09T16:40:22.029Z,23.65
2024-05-09T16:45:33.632Z,22.79
2024-05-09T16:50:37.354Z,23.97
2024-05-09T16:55:40.386Z,23.81
2024-05-09T17:00:44.297Z,23.37
2024-05-09T17:05:48.436Z,23.67
2024-05-09T17:10:51.690Z,23.64
2024-05-09T17:15:54.826Z,23.27
2024-05-09T17:20:57.730Z,23.35
2024-05-09T17:26:00.984Z,23.46
2024-05-09T17:31:03.968Z,23.12
2024-05-09T17:36:07.358Z,22.84
2024-05-09T17:41:10.402Z,22.35
2024-05-09T17:46:13.652Z,22.60
2024-05-09T17:51:16.614Z,22.27
2024-05-09T17:56:19.610Z,22.18
2024-05-09T18:01:23.824Z,22.49
2024-05-09T18:06:26.999Z,22.04
2024-05-09T18:11:30.265Z,22.16
2024-05-09T18:16:33.584Z,21.18
2024-05-09T18:21:36.692Z,21.51
2024-05-09T18:26:39.841Z,21.47
2024-05-09T18:31:42.961Z,21.42
2024-05-09T18:36:46.660Z,20.90
2024-05-09T18:41:49.564Z,20.82
2024-05-09T18:46:52.524Z,20.31
2024-05-09T18:51:55.433Z,20.90
2024-05-09T18:56:58.398Z,20.23
2024-05-09T19:02:01.504Z,19.99
2024-05-09T19:07:04.608Z,19.60
2024-05-09T19:12:08.047Z,19.44
2024-05-09T19:17:11.230Z,19.29
2024-05-09T19:22:14.231Z,18.99
2024-05-09T19:27:17.253Z,18.48
2024-05-09T19:32:20.334Z,18.59
2024-05-09T19:37:23.666Z,18.49
2024-05-09T19:42:27.567Z,18.19
2024-05-09T19:47:30.626Z,18.53
2024-05-09T19:52:33.640Z,17.89
2024-05-09T19:57:36.615Z,17.90
2024-05-09T20:02:39.865Z,17.28
2024-05-09T20:07:43.280Z,17.07
2024-05-09T20:12:46.287Z,17.81
2024-05-09T20:17:49.421Z,16.67
2024-05-09T20:22:52.531Z,16.62
2024-05-09T20:27:55.515Z,16.81
2024-05-09T20:32:58.729Z,16.50
2024-05-09T20:38:03.080Z,15.98
2024-05-09T20:43:09.673Z,16.73
2024-05-09T20:48:13.322Z,16.65
2024-05-09T20:53:16.297Z,16.82
2024-05-09T20:58:19.284Z,15.73
2024-05-09T21:03:22.317Z,15.75
2024-05-09T21:08:27.016Z,15.50
2024-05-09T21:13:30.105Z,15.41
2024-05-09T21:18:33.351Z,15.39
2024-05-09T21:23:38.107Z,15.52
2024-05-09T21:28:41.076Z,15.34
2024-05-09T21:33:44.326Z,15.50
2024-05-09T21:38:47.345Z,15.07
2024-05-09T21:43:50.278Z,14.81
2024-05-09T21:48:53.733Z,15.17
2024-05-09T21:53:58.967Z,15.12
2024-05-09T21:59:01.894Z,15.08
2024-05-09T22:04:05.031Z,14.88
2024-05-09T22:09:08.016Z,14.16
2024-05-09T22:14:10.992Z,14.38
2024-05-09T22:19:14.167Z,14.25
2024-05-09T22:24:17.134Z,15.05
2024-05-09T22:29:20.059Z,15.24
2024-05-09T22:34:23.429Z,14.85
2024-05-09T22:39:26.675Z,13.75
2024-05-09T22:44:29.902Z,14.15
2024-05-09T22:49:32.850Z,13.87
2024-05-09T22:54:36.039Z,14.58
2024-05-09T22:59:39.141Z,14.73
2024-05-09T23:04:42.106Z,12.66
2024-05-09T23:09:48.432Z,14.17
2024-05-09T23:14:51.641Z,13.25
2024-05-09T23:19:54.762Z,12.98
2024-05-09T23:24:57.999Z,12.96
2024-05-09T23:30:01.138Z,13.28
2024-05-09T23:35:04.240Z,13.63
2024-05-09T23:40:09.695Z,12.49
2024-05-09T23:45:13.032Z,13.31
2024-05-09T23:50:20.705Z,12.98
2024-05-09T23:55:31.314Z,12.99
